sensor_id;sensor_type;location;lat;lon;timestamp;P1;durP1;ratioP1;P2;durP2;ratioP2
14408;SDS011;7289;50.706;4.992;2023-04-09T00:01:07;0.20;;;0.20;;
14408;SDS011;7289;50.706;4.992;2023-04-09T00:03:37;0.20;;;0.20;;
14408;SDS011;7289;50.706;4.992;2023-04-09T00:06:06;0.20;;;0.20;;
14408;SDS011;7289;50.706;4.992;2023-04-09T00:08:34;0.20;;;0.20;;
14408;SDS011;7289;50.706;4.992;2023-04-09T00:11:04;0.20;;;0.20;;
14408;SDS011;7289;50.706;4.992;2023-04-09T00:13:32;0.20;;;0.20;;
14408;SDS011;7289;50.706;4.992;2023-04-09T00:16:05;0.20;;;0.20;;
14408;SDS011;7289;50.706;4.992;2023-04-09T00:18:34;0.20;;;0.20;;
14408;SDS011;7289;50.706;4.992;2023-04-09T00:21:03;0.20;;;0.20;;
14408;SDS011;7289;50.706;4.992;2023-04-09T00:23:32;0.20;;;0.20;;
14408;SDS011;7289;50.706;4.992;2023-04-09T00:26:01;0.20;;;0.20;;
14408;SDS011;7289;50.706;4.992;2023-04-09T00:28:31;0.20;;;0.20;;
14408;SDS011;7289;50.706;4.992;2023-04-09T00:30:59;0.20;;;0.20;;
14408;SDS011;7289;50.706;4.992;2023-04-09T00:33:27;0.20;;;0.20;;
14408;SDS011;7289;50.706;4.992;2023-04-09T00:35:56;0.20;;;0.20;;
14408;SDS011;7289;50.706;4.992;2023-04-09T00:38:24;0.20;;;0.20;;
14408;SDS011;7289;50.706;4.992;2023-04-09T00:40:52;0.20;;;0.20;;
14408;SDS011;7289;50.706;4.992;2023-04-09T00:43:21;0.30;;;0.30;;
14408;SDS011;7289;50.706;4.992;2023-04-09T00:45:50;0.20;;;0.20;;
14408;SDS011;7289;50.706;4.992;2023-04-09T00:48:18;0.20;;;0.20;;
14408;SDS011;7289;50.706;4.992;2023-04-09T00:50:47;0.20;;;0.20;;
14408;SDS011;7289;50.706;4.992;2023-04-09T00:53:15;0.30;;;0.30;;
14408;SDS011;7289;50.706;4.992;2023-04-09T00:55:44;0.20;;;0.20;;
14408;SDS011;7289;50.706;4.992;2023-04-09T00:58:13;0.20;;;0.20;;
14408;SDS011;7289;50.706;4.992;2023-04-09T01:00:41;0.30;;;0.30;;
14408;SDS011;7289;50.706;4.992;2023-04-09T01:03:10;0.30;;;0.30;;
14408;SDS011;7289;50.706;4.992;2023-04-09T01:05:40;0.20;;;0.20;;
14408;SDS011;7289;50.706;4.992;2023-04-09T01:08:21;0.20;;;0.20;;
14408;SDS011;7289;50.706;4.992;2023-04-09T01:11:01;0.20;;;0.20;;
14408;SDS011;7289;50.706;4.992;2023-04-09T01:13:38;0.30;;;0.30;;
14408;SDS011;7289;50.706;4.992;2023-04-09T01:16:15;0.20;;;0.20;;
14408;SDS011;7289;50.706;4.992;2023-04-09T01:18:51;0.20;;;0.20;;
14408;SDS011;7289;50.706;4.992;2023-04-09T01:21:25;0.20;;;0.20;;
14408;SDS011;7289;50.706;4.992;2023-04-09T01:24:00;0.20;;;0.20;;
14408;SDS011;7289;50.706;4.992;2023-04-09T01:26:51;0.20;;;0.20;;
14408;SDS011;7289;50.706;4.992;2023-04-09T01:29:30;0.20;;;0.20;;
14408;SDS011;7289;50.706;4.992;2023-04-09T01:32:01;0.20;;;0.20;;
14408;SDS011;7289;50.706;4.992;2023-04-09T01:34:31;0.20;;;0.20;;
14408;SDS011;7289;50.706;4.992;2023-04-09T01:37:01;0.20;;;0.20;;
14408;SDS011;7289;50.706;4.992;2023-04-09T01:39:30;0.20;;;0.20;;
14408;SDS011;7289;50.706;4.992;2023-04-09T01:41:59;0.30;;;0.30;;
14408;SDS011;7289;50.706;4.992;2023-04-09T01:44:31;0.27;;;0.27;;
14408;SDS011;7289;50.706;4.992;2023-04-09T01:46:59;0.30;;;0.30;;
14408;SDS011;7289;50.706;4.992;2023-04-09T01:49:28;0.30;;;0.30;;
14408;SDS011;7289;50.706;4.992;2023-04-09T01:51:57;0.30;;;0.30;;
14408;SDS011;7289;50.706;4.992;2023-04-09T01:54:26;0.23;;;0.23;;
14408;SDS011;7289;50.706;4.992;2023-04-09T01:56:55;0.30;;;0.30;;
14408;SDS011;7289;50.706;4.992;2023-04-09T01:59:24;0.20;;;0.20;;
14408;SDS011;7289;50.706;4.992;2023-04-09T02:01:54;0.20;;;0.20;;
14408;SDS011;7289;50.706;4.992;2023-04-09T02:04:29;0.20;;;0.20;;
14408;SDS011;7289;50.706;4.992;2023-04-09T02:07:02;0.20;;;0.20;;
14408;SDS011;7289;50.706;4.992;2023-04-09T02:09:35;0.20;;;0.20;;
14408;SDS011;7289;50.706;4.992;2023-04-09T02:12:06;0.20;;;0.20;;
14408;SDS011;7289;50.706;4.992;2023-04-09T02:14:38;0.27;;;0.27;;
14408;SDS011;7289;50.706;4.992;2023-04-09T02:17:09;0.27;;;0.27;;
14408;SDS011;7289;50.706;4.992;2023-04-09T02:19:39;0.20;;;0.20;;
14408;SDS011;7289;50.706;4.992;2023-04-09T02:22:08;0.30;;;0.30;;
14408;SDS011;7289;50.706;4.992;2023-04-09T02:24:37;0.20;;;0.20;;
14408;SDS011;7289;50.706;4.992;2023-04-09T02:27:07;0.20;;;0.20;;
14408;SDS011;7289;50.706;4.992;2023-04-09T02:29:37;0.27;;;0.27;;
14408;SDS011;7289;50.706;4.992;2023-04-09T02:32:05;0.30;;;0.30;;
14408;SDS011;7289;50.706;4.992;2023-04-09T02:34:35;0.20;;;0.20;;
14408;SDS011;7289;50.706;4.992;2023-04-09T02:37:03;0.30;;;0.30;;
14408;SDS011;7289;50.706;4.992;2023-04-09T02:39:32;0.20;;;0.20;;
14408;SDS011;7289;50.706;4.992;2023-04-09T02:42:01;0.20;;;0.20;;
14408;SDS011;7289;50.706;4.992;2023-04-09T02:44:29;0.30;;;0.30;;
14408;SDS011;7289;50.706;4.992;2023-04-09T02:46:57;0.30;;;0.30;;
14408;SDS011;7289;50.706;4.992;2023-04-09T02:49:25;0.30;;;0.30;;
14408;SDS011;7289;50.706;4.992;2023-04-09T02:51:55;0.23;;;0.23;;
14408;SDS011;7289;50.706;4.992;2023-04-09T02:54:23;0.20;;;0.20;;
14408;SDS011;7289;50.706;4.992;2023-04-09T02:56:52;0.30;;;0.30;;
14408;SDS011;7289;50.706;4.992;2023-04-09T02:59:20;0.30;;;0.30;;
14408;SDS011;7289;50.706;4.992;2023-04-09T03:01:48;0.30;;;0.30;;
14408;SDS011;7289;50.706;4.992;2023-04-09T03:04:16;0.20;;;0.20;;
14408;SDS011;7289;50.706;4.992;2023-04-09T03:06:45;0.30;;;0.30;;
14408;SDS011;7289;50.706;4.992;2023-04-09T03:09:14;0.20;;;0.20;;
14408;SDS011;7289;50.706;4.992;2023-04-09T03:11:43;0.23;;;0.23;;
14408;SDS011;7289;50.706;4.992;2023-04-09T03:14:11;0.20;;;0.20;;
14408;SDS011;7289;50.706;4.992;2023-04-09T03:16:40;0.20;;;0.20;;
14408;SDS011;7289;50.706;4.992;2023-04-09T03:19:08;0.40;;;0.40;;
14408;SDS011;7289;50.706;4.992;2023-04-09T03:21:36;0.30;;;0.30;;
14408;SDS011;7289;50.706;4.992;2023-04-09T03:24:04;0.20;;;0.20;;
14408;SDS011;7289;50.706;4.992;2023-04-09T03:26:34;0.30;;;0.30;;
14408;SDS011;7289;50.706;4.992;2023-04-09T03:29:05;0.30;;;0.30;;
14408;SDS011;7289;50.706;4.992;2023-04-09T03:31:33;0.20;;;0.20;;
14408;SDS011;7289;50.706;4.992;2023-04-09T03:34:02;0.30;;;0.30;;
14408;SDS011;7289;50.706;4.992;2023-04-09T03:36:31;0.30;;;0.30;;
14408;SDS011;7289;50.706;4.992;2023-04-09T03:39:01;0.30;;;0.30;;
14408;SDS011;7289;50.706;4.992;2023-04-09T03:41:41;0.30;;;0.30;;
14408;SDS011;7289;50.706;4.992;2023-04-09T03:44:13;0.30;;;0.30;;
14408;SDS011;7289;50.706;4.992;2023-04-09T03:46:56;0.30;;;0.30;;
14408;SDS011;7289;50.706;4.992;2023-04-09T03:49:26;0.20;;;0.20;;
14408;SDS011;7289;50.706;4.992;2023-04-09T03:52:01;0.30;;;0.30;;
14408;SDS011;7289;50.706;4.992;2023-04-09T03:54:35;0.30;;;0.30;;
14408;SDS011;7289;50.706;4.992;2023-04-09T03:57:11;0.30;;;0.30;;
14408;SDS011;7289;50.706;4.992;2023-04-09T03:59:42;0.30;;;0.30;;
14408;SDS011;7289;50.706;4.992;2023-04-09T04:02:13;0.30;;;0.30;;
14408;SDS011;7289;50.706;4.992;2023-04-09T04:04:47;0.30;;;0.30;;
14408;SDS011;7289;50.706;4.992;2023-04-09T04:07:16;0.30;;;0.30;;
14408;SDS011;7289;50.706;4.992;2023-04-09T04:09:52;0.30;;;0.30;;
14408;SDS011;7289;50.706;4.992;2023-04-09T04:12:22;0.30;;;0.30;;
14408;SDS011;7289;50.706;4.992;2023-04-09T04:15:02;0.20;;;0.20;;
14408;SDS011;7289;50.706;4.992;2023-04-09T04:17:44;0.20;;;0.20;;
14408;SDS011;7289;50.706;4.992;2023-04-09T04:20:22;0.30;;;0.30;;
14408;SDS011;7289;50.706;4.992;2023-04-09T04:23:04;0.30;;;0.30;;
14408;SDS011;7289;50.706;4.992;2023-04-09T04:25:36;0.30;;;0.30;;
14408;SDS011;7289;50.706;4.992;2023-04-09T04:28:12;0.30;;;0.30;;
14408;SDS011;7289;50.706;4.992;2023-04-09T04:30:41;0.30;;;0.30;;
14408;SDS011;7289;50.706;4.992;2023-04-09T04:33:10;0.30;;;0.30;;
14408;SDS011;7289;50.706;4.992;2023-04-09T04:36:04;0.30;;;0.30;;
14408;SDS011;7289;50.706;4.992;2023-04-09T04:38:37;0.20;;;0.20;;
14408;SDS011;7289;50.706;4.992;2023-04-09T04:41:13;0.30;;;0.30;;
14408;SDS011;7289;50.706;4.992;2023-04-09T04:43:49;0.30;;;0.30;;
14408;SDS011;7289;50.706;4.992;2023-04-09T04:46:21;0.30;;;0.30;;
14408;SDS011;7289;50.706;4.992;2023-04-09T04:48:49;0.30;;;0.30;;
14408;SDS011;7289;50.706;4.992;2023-04-09T04:51:18;0.30;;;0.30;;
14408;SDS011;7289;50.706;4.992;2023-04-09T04:53:59;0.30;;;0.30;;
14408;SDS011;7289;50.706;4.992;2023-04-09T04:56:28;0.30;;;0.30;;
14408;SDS011;7289;50.706;4.992;2023-04-09T04:59:17;0.30;;;0.30;;
14408;SDS011;7289;50.706;4.992;2023-04-09T05:01:58;0.30;;;0.30;;
14408;SDS011;7289;50.706;4.992;2023-04-09T05:04:32;0.30;;;0.30;;
14408;SDS011;7289;50.706;4.992;2023-04-09T05:07:02;0.30;;;0.30;;
14408;SDS011;7289;50.706;4.992;2023-04-09T05:09:30;0.30;;;0.30;;
14408;SDS011;7289;50.706;4.992;2023-04-09T05:12:02;0.30;;;0.30;;
14408;SDS011;7289;50.706;4.992;2023-04-09T05:14:32;0.30;;;0.30;;
14408;SDS011;7289;50.706;4.992;2023-04-09T05:17:01;0.30;;;0.30;;
14408;SDS011;7289;50.706;4.992;2023-04-09T05:19:39;0.30;;;0.30;;
14408;SDS011;7289;50.706;4.992;2023-04-09T05:22:09;0.30;;;0.30;;
14408;SDS011;7289;50.706;4.992;2023-04-09T05:24:37;0.30;;;0.30;;
14408;SDS011;7289;50.706;4.992;2023-04-09T05:27:06;0.30;;;0.30;;
14408;SDS011;7289;50.706;4.992;2023-04-09T05:29:35;0.30;;;0.30;;
14408;SDS011;7289;50.706;4.992;2023-04-09T05:32:06;0.30;;;0.30;;
14408;SDS011;7289;50.706;4.992;2023-04-09T05:34:37;0.30;;;0.30;;
14408;SDS011;7289;50.706;4.992;2023-04-09T05:37:06;0.30;;;0.30;;
14408;SDS011;7289;50.706;4.992;2023-04-09T05:39:35;0.30;;;0.30;;
14408;SDS011;7289;50.706;4.992;2023-04-09T05:42:03;0.30;;;0.30;;
14408;SDS011;7289;50.706;4.992;2023-04-09T05:44:50;0.30;;;0.30;;
14408;SDS011;7289;50.706;4.992;2023-04-09T05:47:20;0.30;;;0.30;;
14408;SDS011;7289;50.706;4.992;2023-04-09T05:50:06;0.30;;;0.30;;
14408;SDS011;7289;50.706;4.992;2023-04-09T05:52:35;0.30;;;0.30;;
14408;SDS011;7289;50.706;4.992;2023-04-09T05:55:04;0.20;;;0.20;;
14408;SDS011;7289;50.706;4.992;2023-04-09T05:57:51;0.30;;;0.30;;
14408;SDS011;7289;50.706;4.992;2023-04-09T06:00:22;0.30;;;0.30;;
14408;SDS011;7289;50.706;4.992;2023-04-09T06:02:50;0.30;;;0.30;;
14408;SDS011;7289;50.706;4.992;2023-04-09T06:05:18;0.30;;;0.30;;
14408;SDS011;7289;50.706;4.992;2023-04-09T06:07:47;0.30;;;0.30;;
14408;SDS011;7289;50.706;4.992;2023-04-09T06:10:15;0.30;;;0.30;;
14408;SDS011;7289;50.706;4.992;2023-04-09T06:12:46;0.30;;;0.30;;
14408;SDS011;7289;50.706;4.992;2023-04-09T06:15:14;0.20;;;0.20;;
14408;SDS011;7289;50.706;4.992;2023-04-09T06:17:43;0.20;;;0.20;;
14408;SDS011;7289;50.706;4.992;2023-04-09T06:20:12;0.30;;;0.30;;
14408;SDS011;7289;50.706;4.992;2023-04-09T06:22:40;0.30;;;0.30;;
14408;SDS011;7289;50.706;4.992;2023-04-09T06:25:08;0.20;;;0.20;;
14408;SDS011;7289;50.706;4.992;2023-04-09T06:27:37;0.30;;;0.30;;
14408;SDS011;7289;50.706;4.992;2023-04-09T06:30:06;0.30;;;0.30;;
14408;SDS011;7289;50.706;4.992;2023-04-09T06:32:36;0.20;;;0.20;;
14408;SDS011;7289;50.706;4.992;2023-04-09T06:35:20;0.20;;;0.20;;
14408;SDS011;7289;50.706;4.992;2023-04-09T06:37:48;0.20;;;0.20;;
14408;SDS011;7289;50.706;4.992;2023-04-09T06:40:16;0.20;;;0.20;;
14408;SDS011;7289;50.706;4.992;2023-04-09T06:42:48;0.20;;;0.20;;
14408;SDS011;7289;50.706;4.992;2023-04-09T06:45:22;0.20;;;0.20;;
14408;SDS011;7289;50.706;4.992;2023-04-09T06:47:50;0.20;;;0.20;;
14408;SDS011;7289;50.706;4.992;2023-04-09T06:50:20;0.20;;;0.20;;
14408;SDS011;7289;50.706;4.992;2023-04-09T06:52:49;0.20;;;0.20;;
14408;SDS011;7289;50.706;4.992;2023-04-09T06:55:17;0.20;;;0.20;;
14408;SDS011;7289;50.706;4.992;2023-04-09T06:57:45;0.20;;;0.20;;
14408;SDS011;7289;50.706;4.992;2023-04-09T07:00:14;0.20;;;0.20;;
14408;SDS011;7289;50.706;4.992;2023-04-09T07:02:42;0.20;;;0.20;;
14408;SDS011;7289;50.706;4.992;2023-04-09T07:05:11;0.20;;;0.20;;
14408;SDS011;7289;50.706;4.992;2023-04-09T07:07:40;0.20;;;0.20;;
14408;SDS011;7289;50.706;4.992;2023-04-09T07:10:09;0.20;;;0.20;;
14408;SDS011;7289;50.706;4.992;2023-04-09T07:12:37;0.20;;;0.20;;
14408;SDS011;7289;50.706;4.992;2023-04-09T07:15:06;0.20;;;0.20;;
14408;SDS011;7289;50.706;4.992;2023-04-09T07:17:34;0.20;;;0.20;;
14408;SDS011;7289;50.706;4.992;2023-04-09T07:20:03;0.20;;;0.20;;
14408;SDS011;7289;50.706;4.992;2023-04-09T07:22:32;0.20;;;0.20;;
14408;SDS011;7289;50.706;4.992;2023-04-09T07:25:01;0.20;;;0.20;;
14408;SDS011;7289;50.706;4.992;2023-04-09T07:27:30;0.10;;;0.10;;
14408;SDS011;7289;50.706;4.992;2023-04-09T07:29:58;0.10;;;0.10;;
14408;SDS011;7289;50.706;4.992;2023-04-09T07:32:27;0.20;;;0.20;;
14408;SDS011;7289;50.706;4.992;2023-04-09T07:34:56;0.20;;;0.20;;
14408;SDS011;7289;50.706;4.992;2023-04-09T07:37:24;0.10;;;0.10;;
14408;SDS011;7289;50.706;4.992;2023-04-09T07:39:53;0.20;;;0.20;;
14408;SDS011;7289;50.706;4.992;2023-04-09T07:42:23;0.20;;;0.20;;
14408;SDS011;7289;50.706;4.992;2023-04-09T07:44:52;0.20;;;0.20;;
14408;SDS011;7289;50.706;4.992;2023-04-09T07:47:22;0.10;;;0.10;;
14408;SDS011;7289;50.706;4.992;2023-04-09T07:49:50;0.10;;;0.10;;
14408;SDS011;7289;50.706;4.992;2023-04-09T07:52:18;0.20;;;0.20;;
14408;SDS011;7289;50.706;4.992;2023-04-09T07:54:47;0.10;;;0.10;;
14408;SDS011;7289;50.706;4.992;2023-04-09T07:57:15;0.10;;;0.10;;
14408;SDS011;7289;50.706;4.992;2023-04-09T07:59:44;0.10;;;0.10;;
14408;SDS011;7289;50.706;4.992;2023-04-09T08:02:13;0.20;;;0.20;;
14408;SDS011;7289;50.706;4.992;2023-04-09T08:04:41;0.10;;;0.10;;
14408;SDS011;7289;50.706;4.992;2023-04-09T08:07:10;0.10;;;0.10;;
14408;SDS011;7289;50.706;4.992;2023-04-09T08:09:38;0.10;;;0.10;;
14408;SDS011;7289;50.706;4.992;2023-04-09T08:12:07;0.10;;;0.10;;
14408;SDS011;7289;50.706;4.992;2023-04-09T08:14:35;0.10;;;0.10;;
14408;SDS011;7289;50.706;4.992;2023-04-09T08:17:04;0.10;;;0.10;;
14408;SDS011;7289;50.706;4.992;2023-04-09T08:19:33;0.10;;;0.10;;
14408;SDS011;7289;50.706;4.992;2023-04-09T08:22:01;0.10;;;0.10;;
14408;SDS011;7289;50.706;4.992;2023-04-09T08:24:29;0.10;;;0.10;;
14408;SDS011;7289;50.706;4.992;2023-04-09T08:26:57;0.10;;;0.10;;
14408;SDS011;7289;50.706;4.992;2023-04-09T08:29:27;0.10;;;0.10;;
14408;SDS011;7289;50.706;4.992;2023-04-09T08:31:55;0.10;;;0.10;;
14408;SDS011;7289;50.706;4.992;2023-04-09T08:34:25;0.10;;;0.10;;
14408;SDS011;7289;50.706;4.992;2023-04-09T08:36:54;0.10;;;0.10;;
14408;SDS011;7289;50.706;4.992;2023-04-09T08:39:22;0.10;;;0.10;;
14408;SDS011;7289;50.706;4.992;2023-04-09T08:41:51;0.10;;;0.10;;
14408;SDS011;7289;50.706;4.992;2023-04-09T08:44:20;0.10;;;0.10;;
14408;SDS011;7289;50.706;4.992;2023-04-09T08:46:48;0.10;;;0.10;;
14408;SDS011;7289;50.706;4.992;2023-04-09T08:49:16;0.10;;;0.10;;
14408;SDS011;7289;50.706;4.992;2023-04-09T08:51:46;0.10;;;0.10;;
14408;SDS011;7289;50.706;4.992;2023-04-09T08:54:15;0.10;;;0.10;;
14408;SDS011;7289;50.706;4.992;2023-04-09T08:56:45;0.10;;;0.10;;
14408;SDS011;7289;50.706;4.992;2023-04-09T08:59:14;0.10;;;0.10;;
14408;SDS011;7289;50.706;4.992;2023-04-09T09:01:44;0.10;;;0.10;;
14408;SDS011;7289;50.706;4.992;2023-04-09T09:04:18;0.10;;;0.10;;
14408;SDS011;7289;50.706;4.992;2023-04-09T09:06:48;0.10;;;0.10;;
14408;SDS011;7289;50.706;4.992;2023-04-09T09:09:19;0.10;;;0.10;;
14408;SDS011;7289;50.706;4.992;2023-04-09T09:11:48;0.10;;;0.10;;
14408;SDS011;7289;50.706;4.992;2023-04-09T09:14:17;0.10;;;0.10;;
14408;SDS011;7289;50.706;4.992;2023-04-09T09:17:01;0.10;;;0.10;;
14408;SDS011;7289;50.706;4.992;2023-04-09T09:19:32;0.10;;;0.10;;
14408;SDS011;7289;50.706;4.992;2023-04-09T09:22:03;0.10;;;0.10;;
14408;SDS011;7289;50.706;4.992;2023-04-09T09:24:33;0.10;;;0.10;;
14408;SDS011;7289;50.706;4.992;2023-04-09T09:27:30;0.10;;;0.10;;
14408;SDS011;7289;50.706;4.992;2023-04-09T09:30:02;0.10;;;0.10;;
14408;SDS011;7289;50.706;4.992;2023-04-09T09:32:31;0.13;;;0.13;;
14408;SDS011;7289;50.706;4.992;2023-04-09T09:35:00;0.10;;;0.10;;
14408;SDS011;7289;50.706;4.992;2023-04-09T09:37:31;0.10;;;0.10;;
14408;SDS011;7289;50.706;4.992;2023-04-09T09:40:00;0.10;;;0.10;;
14408;SDS011;7289;50.706;4.992;2023-04-09T09:42:29;0.10;;;0.10;;
14408;SDS011;7289;50.706;4.992;2023-04-09T09:44:57;0.10;;;0.10;;
14408;SDS011;7289;50.706;4.992;2023-04-09T09:47:25;0.10;;;0.10;;
14408;SDS011;7289;50.706;4.992;2023-04-09T09:49:56;0.10;;;0.10;;
14408;SDS011;7289;50.706;4.992;2023-04-09T09:52:25;0.00;;;0.00;;
14408;SDS011;7289;50.706;4.992;2023-04-09T09:54:54;0.10;;;0.10;;
14408;SDS011;7289;50.706;4.992;2023-04-09T09:57:26;0.10;;;0.10;;
14408;SDS011;7289;50.706;4.992;2023-04-09T09:59:59;0.10;;;0.10;;
14408;SDS011;7289;50.706;4.992;2023-04-09T10:02:36;0.10;;;0.10;;
14408;SDS011;7289;50.706;4.992;2023-04-09T10:05:10;0.10;;;0.10;;
14408;SDS011;7289;50.706;4.992;2023-04-09T10:07:38;0.10;;;0.10;;
14408;SDS011;7289;50.706;4.992;2023-04-09T10:10:08;0.05;;;0.05;;
14408;SDS011;7289;50.706;4.992;2023-04-09T10:12:37;0.10;;;0.10;;
14408;SDS011;7289;50.706;4.992;2023-04-09T10:15:07;0.10;;;0.10;;
14408;SDS011;7289;50.706;4.992;2023-04-09T10:17:36;0.10;;;0.10;;
14408;SDS011;7289;50.706;4.992;2023-04-09T10:20:06;0.00;;;0.00;;
14408;SDS011;7289;50.706;4.992;2023-04-09T10:22:41;0.10;;;0.10;;
14408;SDS011;7289;50.706;4.992;2023-04-09T10:25:13;0.10;;;0.10;;
14408;SDS011;7289;50.706;4.992;2023-04-09T10:27:43;0.10;;;0.10;;
14408;SDS011;7289;50.706;4.992;2023-04-09T10:33:07;0.00;;;0.00;;
14408;SDS011;7289;50.706;4.992;2023-04-09T10:35:40;0.10;;;0.10;;
14408;SDS011;7289;50.706;4.992;2023-04-09T10:38:09;0.10;;;0.10;;
14408;SDS011;7289;50.706;4.992;2023-04-09T10:40:42;0.10;;;0.10;;
14408;SDS011;7289;50.706;4.992;2023-04-09T10:43:16;0.00;;;0.00;;
14408;SDS011;7289;50.706;4.992;2023-04-09T10:45:46;0.10;;;0.10;;
14408;SDS011;7289;50.706;4.992;2023-04-09T10:48:19;0.10;;;0.10;;
14408;SDS011;7289;50.706;4.992;2023-04-09T10:50:49;0.10;;;0.10;;
14408;SDS011;7289;50.706;4.992;2023-04-09T10:53:21;0.10;;;0.10;;
14408;SDS011;7289;50.706;4.992;2023-04-09T10:55:52;0.10;;;0.10;;
14408;SDS011;7289;50.706;4.992;2023-04-09T10:58:21;0.08;;;0.08;;
14408;SDS011;7289;50.706;4.992;2023-04-09T11:00:50;0.10;;;0.10;;
14408;SDS011;7289;50.706;4.992;2023-04-09T11:03:19;0.10;;;0.10;;
14408;SDS011;7289;50.706;4.992;2023-04-09T11:05:53;0.10;;;0.10;;
14408;SDS011;7289;50.706;4.992;2023-04-09T11:08:26;0.00;;;0.00;;
14408;SDS011;7289;50.706;4.992;2023-04-09T11:10:57;0.10;;;0.10;;
14408;SDS011;7289;50.706;4.992;2023-04-09T11:13:27;0.10;;;0.10;;
14408;SDS011;7289;50.706;4.992;2023-04-09T11:15:56;0.00;;;0.00;;
14408;SDS011;7289;50.706;4.992;2023-04-09T11:18:27;0.10;;;0.10;;
14408;SDS011;7289;50.706;4.992;2023-04-09T11:20:57;0.10;;;0.10;;
14408;SDS011;7289;50.706;4.992;2023-04-09T11:23:26;0.10;;;0.10;;
14408;SDS011;7289;50.706;4.992;2023-04-09T11:25:55;0.10;;;0.10;;
14408;SDS011;7289;50.706;4.992;2023-04-09T11:28:24;0.10;;;0.10;;
14408;SDS011;7289;50.706;4.992;2023-04-09T11:30:53;0.00;;;0.00;;
14408;SDS011;7289;50.706;4.992;2023-04-09T11:33:21;0.10;;;0.10;;
14408;SDS011;7289;50.706;4.992;2023-04-09T11:35:50;0.10;;;0.10;;
14408;SDS011;7289;50.706;4.992;2023-04-09T11:38:19;0.00;;;0.00;;
14408;SDS011;7289;50.706;4.992;2023-04-09T11:40:47;0.10;;;0.10;;
14408;SDS011;7289;50.706;4.992;2023-04-09T11:43:16;0.10;;;0.10;;
14408;SDS011;7289;50.706;4.992;2023-04-09T11:45:48;0.00;;;0.00;;
14408;SDS011;7289;50.706;4.992;2023-04-09T11:48:16;0.10;;;0.10;;
14408;SDS011;7289;50.706;4.992;2023-04-09T11:50:47;0.10;;;0.10;;
14408;SDS011;7289;50.706;4.992;2023-04-09T11:53:16;0.10;;;0.10;;
14408;SDS011;7289;50.706;4.992;2023-04-09T11:55:45;0.10;;;0.10;;
14408;SDS011;7289;50.706;4.992;2023-04-09T11:58:15;0.10;;;0.10;;
14408;SDS011;7289;50.706;4.992;2023-04-09T12:00:44;0.10;;;0.10;;
14408;SDS011;7289;50.706;4.992;2023-04-09T12:03:13;0.10;;;0.10;;
14408;SDS011;7289;50.706;4.992;2023-04-09T12:05:44;0.10;;;0.10;;
14408;SDS011;7289;50.706;4.992;2023-04-09T12:08:16;0.05;;;0.05;;
14408;SDS011;7289;50.706;4.992;2023-04-09T12:10:50;0.10;;;0.10;;
14408;SDS011;7289;50.706;4.992;2023-04-09T12:13:19;0.03;;;0.03;;
14408;SDS011;7289;50.706;4.992;2023-04-09T12:15:48;0.10;;;0.10;;
14408;SDS011;7289;50.706;4.992;2023-04-09T12:18:20;0.10;;;0.10;;
14408;SDS011;7289;50.706;4.992;2023-04-09T12:20:49;0.10;;;0.10;;
14408;SDS011;7289;50.706;4.992;2023-04-09T12:23:17;0.10;;;0.10;;
14408;SDS011;7289;50.706;4.992;2023-04-09T12:25:45;0.10;;;0.10;;
14408;SDS011;7289;50.706;4.992;2023-04-09T12:28:14;0.10;;;0.10;;
14408;SDS011;7289;50.706;4.992;2023-04-09T12:30:44;0.10;;;0.10;;
14408;SDS011;7289;50.706;4.992;2023-04-09T12:33:14;0.10;;;0.10;;
14408;SDS011;7289;50.706;4.992;2023-04-09T12:35:44;0.10;;;0.10;;
14408;SDS011;7289;50.706;4.992;2023-04-09T12:38:13;0.10;;;0.10;;
14408;SDS011;7289;50.706;4.992;2023-04-09T12:40:41;0.00;;;0.00;;
14408;SDS011;7289;50.706;4.992;2023-04-09T12:43:09;0.10;;;0.10;;
14408;SDS011;7289;50.706;4.992;2023-04-09T12:45:38;0.10;;;0.10;;
14408;SDS011;7289;50.706;4.992;2023-04-09T12:48:06;0.00;;;0.00;;
14408;SDS011;7289;50.706;4.992;2023-04-09T12:50:34;0.00;;;0.00;;
14408;SDS011;7289;50.706;4.992;2023-04-09T12:53:04;0.10;;;0.10;;
14408;SDS011;7289;50.706;4.992;2023-04-09T12:55:32;0.10;;;0.10;;
14408;SDS011;7289;50.706;4.992;2023-04-09T12:58:01;0.10;;;0.10;;
14408;SDS011;7289;50.706;4.992;2023-04-09T13:00:29;0.10;;;0.10;;
14408;SDS011;7289;50.706;4.992;2023-04-09T13:02:58;0.10;;;0.10;;
14408;SDS011;7289;50.706;4.992;2023-04-09T13:05:27;0.10;;;0.10;;
14408;SDS011;7289;50.706;4.992;2023-04-09T13:07:56;0.10;;;0.10;;
14408;SDS011;7289;50.706;4.992;2023-04-09T13:10:26;0.10;;;0.10;;
14408;SDS011;7289;50.706;4.992;2023-04-09T13:12:55;0.10;;;0.10;;
14408;SDS011;7289;50.706;4.992;2023-04-09T13:15:24;0.10;;;0.10;;
14408;SDS011;7289;50.706;4.992;2023-04-09T13:17:52;0.00;;;0.00;;
14408;SDS011;7289;50.706;4.992;2023-04-09T13:20:21;0.10;;;0.10;;
14408;SDS011;7289;50.706;4.992;2023-04-09T13:22:49;0.10;;;0.10;;
14408;SDS011;7289;50.706;4.992;2023-04-09T13:25:17;0.03;;;0.03;;
14408;SDS011;7289;50.706;4.992;2023-04-09T13:27:47;0.03;;;0.03;;
14408;SDS011;7289;50.706;4.992;2023-04-09T13:30:15;0.10;;;0.10;;
14408;SDS011;7289;50.706;4.992;2023-04-09T13:32:44;0.10;;;0.10;;
14408;SDS011;7289;50.706;4.992;2023-04-09T13:35:12;0.10;;;0.10;;
14408;SDS011;7289;50.706;4.992;2023-04-09T13:37:40;0.10;;;0.10;;
14408;SDS011;7289;50.706;4.992;2023-04-09T13:40:09;0.10;;;0.10;;
14408;SDS011;7289;50.706;4.992;2023-04-09T13:42:38;0.10;;;0.10;;
14408;SDS011;7289;50.706;4.992;2023-04-09T13:45:08;0.05;;;0.05;;
14408;SDS011;7289;50.706;4.992;2023-04-09T13:47:36;0.10;;;0.10;;
14408;SDS011;7289;50.706;4.992;2023-04-09T13:50:05;0.10;;;0.10;;
14408;SDS011;7289;50.706;4.992;2023-04-09T13:52:35;0.10;;;0.10;;
14408;SDS011;7289;50.706;4.992;2023-04-09T13:55:04;0.10;;;0.10;;
14408;SDS011;7289;50.706;4.992;2023-04-09T13:57:33;0.10;;;0.10;;
14408;SDS011;7289;50.706;4.992;2023-04-09T14:00:02;0.10;;;0.10;;
14408;SDS011;7289;50.706;4.992;2023-04-09T14:02:33;0.10;;;0.10;;
14408;SDS011;7289;50.706;4.992;2023-04-09T14:05:01;0.10;;;0.10;;
14408;SDS011;7289;50.706;4.992;2023-04-09T14:07:30;0.10;;;0.10;;
14408;SDS011;7289;50.706;4.992;2023-04-09T14:09:58;0.10;;;0.10;;
14408;SDS011;7289;50.706;4.992;2023-04-09T14:12:26;0.10;;;0.10;;
14408;SDS011;7289;50.706;4.992;2023-04-09T14:14:54;0.10;;;0.10;;
14408;SDS011;7289;50.706;4.992;2023-04-09T14:17:23;0.10;;;0.10;;
14408;SDS011;7289;50.706;4.992;2023-04-09T14:19:52;0.08;;;0.08;;
14408;SDS011;7289;50.706;4.992;2023-04-09T14:22:20;0.10;;;0.10;;
14408;SDS011;7289;50.706;4.992;2023-04-09T14:24:49;0.10;;;0.10;;
14408;SDS011;7289;50.706;4.992;2023-04-09T14:27:17;0.00;;;0.00;;
14408;SDS011;7289;50.706;4.992;2023-04-09T14:29:45;0.00;;;0.00;;
14408;SDS011;7289;50.706;4.992;2023-04-09T14:32:13;0.10;;;0.10;;
14408;SDS011;7289;50.706;4.992;2023-04-09T14:34:41;0.10;;;0.10;;
14408;SDS011;7289;50.706;4.992;2023-04-09T14:37:11;0.05;;;0.05;;
14408;SDS011;7289;50.706;4.992;2023-04-09T14:39:39;0.10;;;0.10;;
14408;SDS011;7289;50.706;4.992;2023-04-09T14:42:08;0.10;;;0.10;;
14408;SDS011;7289;50.706;4.992;2023-04-09T14:44:36;0.00;;;0.00;;
14408;SDS011;7289;50.706;4.992;2023-04-09T14:47:04;0.10;;;0.10;;
14408;SDS011;7289;50.706;4.992;2023-04-09T14:49:32;0.10;;;0.10;;
14408;SDS011;7289;50.706;4.992;2023-04-09T14:52:01;0.10;;;0.10;;
14408;SDS011;7289;50.706;4.992;2023-04-09T14:54:30;0.03;;;0.03;;
14408;SDS011;7289;50.706;4.992;2023-04-09T14:56:59;0.10;;;0.10;;
14408;SDS011;7289;50.706;4.992;2023-04-09T14:59:28;0.10;;;0.10;;
14408;SDS011;7289;50.706;4.992;2023-04-09T15:01:56;0.10;;;0.10;;
14408;SDS011;7289;50.706;4.992;2023-04-09T15:04:24;0.10;;;0.10;;
14408;SDS011;7289;50.706;4.992;2023-04-09T15:06:53;0.10;;;0.10;;
14408;SDS011;7289;50.706;4.992;2023-04-09T15:09:21;0.10;;;0.10;;
14408;SDS011;7289;50.706;4.992;2023-04-09T15:11:51;0.10;;;0.10;;
14408;SDS011;7289;50.706;4.992;2023-04-09T15:14:20;0.10;;;0.10;;
14408;SDS011;7289;50.706;4.992;2023-04-09T15:16:49;0.10;;;0.10;;
14408;SDS011;7289;50.706;4.992;2023-04-09T15:19:22;0.10;;;0.10;;
14408;SDS011;7289;50.706;4.992;2023-04-09T15:21:50;0.10;;;0.10;;